Terminal Aerodrome Forecast
Issued by NWS

Home | Current Version | Previous Version | Text Only | Print | Product List | Glossary Off
Versions: 1 2 3 4 5 6 7 8 9 10 11 12 13 14 15 16 17 18

918
FTUS43 KGRB 172320
TAFMTW
TAF
KMTW 172320Z 1800/1824 23014G24KT P6SM SKC WS020/28055KT
     FM180600 26011G17KT P6SM SKC WS020/30040KT
     FM181000 26009KT P6SM SKC WS020/31040KT
     FM181100 26008KT P6SM SCT250
     FM181600 24008KT P6SM SCT070 SCT250 WS020/28045KT=

USA.gov is the U.S. government's official web portal to all federal, state and local government web resources and services.